Time;durP1;ratioP1;P1;durP2;ratioP2;P2;SDS_P1;SDS_P2;PMS_P1;PMS_P2;Temp;Humidity;BMP_temperature;BMP_pressure;BME280_temperature;BME280_humidity;BME280_pressure;Samples;Min_cycle;Max_cycle;Signal;HPM_P1;HPM_P2
2022/06/27 00:00:05;;;;;;;;;;;;;;;31.21;30.86;99169.09;4419030;32;33051;-88
2022/06/27 00:02:38;;;;;;;;;;;;;;;30.67;32.02;99173.88;4421266;32;34110;-88
2022/06/27 00:05:06;;;;;;;;;;;;;;;30.84;31.86;99173.59;4420523;32;34381;-88
2022/06/27 00:07:33;;;;;;;;;;;;;;;30.92;31.72;99167.69;4421467;32;34119;-88
2022/06/27 00:10:00;;;;;;;;;;;;;;;30.97;31.92;99161.03;4421717;32;34171;-88
2022/06/27 00:12:28;;;;;;;;;;;;;;;30.99;31.71;99159.09;4394815;32;35023;-89
2022/06/27 00:14:55;;;;;;;;;;;;;;;30.90;31.80;99159.75;4421568;32;34419;-86
2022/06/27 00:17:22;;;;;;;;;;;;;;;30.69;32.17;99169.28;4422070;32;34118;-87
2022/06/27 00:19:50;;;;;;;;;;;;;;;30.83;31.92;99171.84;4422809;32;33520;-87
2022/06/27 00:22:17;;;;;;;;;;;;;;;30.91;31.68;99165.94;4420457;32;33603;-87
2022/06/27 00:24:45;;;;;;;;;;;;;;;30.98;31.77;99162.72;4408146;32;34612;-88
2022/06/27 00:27:12;;;;;;;;;;;;;;;30.90;31.83;99162.41;4423644;32;33975;-88
2022/06/27 00:29:43;;;;;;;;;;;;;;;30.91;31.72;99158.78;4397130;32;33177;-88
2022/06/27 00:32:10;;;;;;;;;;;;;;;30.78;31.88;99157.94;4409274;32;33775;-87
2022/06/27 00:34:38;;;;;;;;;;;;;;;30.63;32.36;99167.00;4423321;32;34915;-88
2022/06/27 00:37:05;;;;;;;;;;;;;;;30.86;31.96;99166.28;4409271;32;35085;-88
2022/06/27 00:39:33;;;;;;;;;;;;;;;30.70;32.26;99162.94;4409485;32;32595;-88
2022/06/27 00:42:00;;;;;;;;;;;;;;;30.85;31.98;99169.06;4409093;32;34028;-88
2022/06/27 00:44:31;;;;;;;;;;;;;;;30.73;32.38;99158.25;4409047;32;34401;-88
2022/06/27 00:46:58;;;;;;;;;;;;;;;30.62;32.53;99157.28;4423519;32;34872;-89
2022/06/27 00:49:26;;;;;;;;;;;;;;;30.58;32.54;99151.28;4409805;32;33194;-88
2022/06/27 00:51:53;;;;;;;;;;;;;;;30.61;32.39;99156.44;4423593;32;33606;-87
2022/06/27 00:54:22;;;;;;;;;;;;;;;30.31;33.03;99159.41;4406336;32;34083;-87
2022/06/27 00:56:50;;;;;;;;;;;;;;;29.98;33.57;99163.37;4395069;32;34193;-85
2022/06/27 00:59:17;;;;;;;;;;;;;;;30.14;33.24;99162.34;4370231;32;32436;-87
2022/06/27 01:01:45;;;;;;;;;;;;;;;29.88;33.62;99167.63;4393865;32;34021;-87
2022/06/27 01:04:19;;;;;;;;;;;;;;;29.81;33.82;99168.97;4407609;32;35201;-88
2022/06/27 01:06:48;;;;;;;;;;;;;;;29.96;33.43;99178.66;4408401;32;34039;-87
2022/06/27 01:09:15;;;;;;;;;;;;;;;30.13;33.32;99176.69;4407807;32;33595;-87
2022/06/27 01:11:43;;;;;;;;;;;;;;;30.08;33.43;99166.31;4394547;32;34041;-89
2022/06/27 01:14:10;;;;;;;;;;;;;;;29.66;34.07;99175.34;4393751;32;35359;-87
2022/06/27 01:16:38;;;;;;;;;;;;;;;29.76;34.00;99166.62;4394034;32;33700;-87
2022/06/27 01:19:10;;;;;;;;;;;;;;;29.94;33.76;99180.56;4407429;32;33580;-87
2022/06/27 01:21:48;;;;;;;;;;;;;;;30.09;33.54;99169.81;4407082;32;34279;-86
2022/06/27 01:24:16;;;;;;;;;;;;;;;29.84;33.97;99179.47;4381266;32;33143;-88
2022/06/27 01:26:44;;;;;;;;;;;;;;;30.13;33.41;99168.66;4381599;32;34464;-87
2022/06/27 01:29:13;;;;;;;;;;;;;;;29.67;34.31;99171.72;4393393;32;33547;-87
2022/06/27 01:31:40;;;;;;;;;;;;;;;29.82;33.96;99162.69;4407613;32;34281;-87
2022/06/27 01:34:08;;;;;;;;;;;;;;;29.73;34.16;99168.63;4394505;32;34364;-87
2022/06/27 01:36:44;;;;;;;;;;;;;;;29.91;33.82;99167.41;4394208;32;34115;-88
2022/06/27 01:39:19;;;;;;;;;;;;;;;29.80;34.06;99162.78;4394029;32;33927;-87
2022/06/27 01:41:50;;;;;;;;;;;;;;;29.90;33.83;99165.72;4393521;32;34381;-87
2022/06/27 01:44:20;;;;;;;;;;;;;;;29.94;33.54;99167.22;4393729;32;35206;-87
2022/06/27 01:46:48;;;;;;;;;;;;;;;29.75;34.29;99161.38;4393967;32;34294;-86
2022/06/27 01:49:16;;;;;;;;;;;;;;;29.73;34.24;99161.47;4381381;32;32629;-88
2022/06/27 01:51:44;;;;;;;;;;;;;;;29.80;33.99;99165.44;4381075;32;34704;-88
2022/06/27 01:54:12;;;;;;;;;;;;;;;29.92;33.65;99173.62;4400032;32;34257;-88
2022/06/27 01:56:40;;;;;;;;;;;;;;;29.85;33.74;99167.81;4393474;32;34076;-87
2022/06/27 01:59:08;;;;;;;;;;;;;;;29.86;33.61;99166.88;4393742;32;34455;-88
2022/06/27 02:01:36;;;;;;;;;;;;;;;30.00;33.51;99161.47;4407486;32;34270;-88
2022/06/27 02:04:03;;;;;;;;;;;;;;;30.02;33.35;99156.84;4393265;32;33927;-87
2022/06/27 02:06:31;;;;;;;;;;;;;;;29.98;33.36;99158.03;4393414;32;32396;-88
2022/06/27 02:08:58;;;;;;;;;;;;;;;30.20;33.01;99168.16;4393199;32;32770;-88
2022/06/27 02:11:26;;;;;;;;;;;;;;;30.13;33.31;99172.19;4393338;32;34843;-88
2022/06/27 02:13:54;;;;;;;;;;;;;;;29.75;33.88;99174.75;4392653;32;34423;-87
2022/06/27 02:16:22;;;;;;;;;;;;;;;29.67;33.97;99175.25;4393318;32;34228;-88
2022/06/27 02:18:50;;;;;;;;;;;;;;;30.06;33.37;99171.72;4393241;32;33789;-87
2022/06/27 02:21:18;;;;;;;;;;;;;;;29.05;34.93;99183.63;4380541;32;33303;-89
2022/06/27 02:23:46;;;;;;;;;;;;;;;29.19;34.96;99181.91;4393513;32;33783;-88
2022/06/27 02:26:14;;;;;;;;;;;;;;;29.46;34.39;99182.81;4407017;32;34324;-90
2022/06/27 02:28:41;;;;;;;;;;;;;;;29.66;34.00;99178.84;4392850;32;33279;-89
2022/06/27 02:31:09;;;;;;;;;;;;;;;28.44;36.23;99182.03;4392499;32;35006;-89
2022/06/27 02:33:39;;;;;;;;;;;;;;;28.85;35.87;99184.00;4406301;32;34898;-89
2022/06/27 02:36:07;;;;;;;;;;;;;;;27.63;37.86;99182.28;4406549;32;33870;-86
2022/06/27 02:38:34;;;;;;;;;;;;;;;27.35;38.91;99190.09;4406685;32;33408;-88
2022/06/27 02:41:03;;;;;;;;;;;;;;;27.43;38.60;99190.56;4392449;32;33806;-88
2022/06/27 02:43:33;;;;;;;;;;;;;;;26.66;40.14;99186.69;4393063;32;35409;-87
2022/06/27 02:46:01;;;;;;;;;;;;;;;26.35;40.88;99191.88;4406724;32;34330;-87
2022/06/27 02:48:30;;;;;;;;;;;;;;;26.85;40.05;99196.34;4392083;32;34257;-88
2022/06/27 02:50:59;;;;;;;;;;;;;;;26.17;41.57;99196.31;4380418;32;34049;-87
2022/06/27 02:53:27;;;;;;;;;;;;;;;25.33;44.00;99211.03;4382438;32;35322;-90
2022/06/27 02:55:57;;;;;;;;;;;;;;;26.35;41.92;99202.50;4406434;32;34188;-87
2022/06/27 02:58:42;;;;;;;;;;;;;;;26.63;41.45;99210.81;4406239;32;34198;-87
2022/06/27 03:01:10;;;;;;;;;;;;;;;26.47;41.91;99204.56;4405847;32;34116;-87
2022/06/27 03:03:37;;;;;;;;;;;;;;;27.06;40.74;99219.16;4405728;32;34410;-87
2022/06/27 03:06:06;;;;;;;;;;;;;;;27.14;40.54;99214.31;4405470;32;33948;-87
2022/06/27 03:08:37;;;;;;;;;;;;;;;26.16;42.86;99218.53;4405116;32;33729;-89
2022/06/27 03:11:04;;;;;;;;;;;;;;;25.73;43.80;99221.47;4405615;32;33904;-90
2022/06/27 03:13:32;;;;;;;;;;;;;;;26.55;42.19;99220.09;4405618;32;34412;-87
2022/06/27 03:15:59;;;;;;;;;;;;;;;25.87;43.68;99218.16;4392958;32;32294;-88
2022/06/27 03:18:26;;;;;;;;;;;;;;;25.82;44.08;99230.81;4405172;32;34046;-87
2022/06/27 03:20:56;;;;;;;;;;;;;;;25.93;43.75;99227.62;4405013;32;33286;-87
2022/06/27 03:23:23;;;;;;;;;;;;;;;25.77;44.04;99231.94;4405055;32;34862;-86
2022/06/27 03:25:52;;;;;;;;;;;;;;;26.67;42.22;99225.66;4398185;32;33884;-88
2022/06/27 03:28:21;;;;;;;;;;;;;;;25.78;43.98;99245.19;4404658;32;32742;-88
2022/06/27 03:30:48;;;;;;;;;;;;;;;25.39;45.26;99245.25;4406263;32;33974;-87
2022/06/27 03:33:16;;;;;;;;;;;;;;;26.21;43.15;99227.09;4405224;32;33729;-86
2022/06/27 03:35:44;;;;;;;;;;;;;;;26.52;42.67;99228.25;4406613;32;34033;-88
2022/06/27 03:38:12;;;;;;;;;;;;;;;27.04;41.43;99242.31;4405443;32;33595;-91
2022/06/27 03:40:39;;;;;;;;;;;;;;;27.95;39.66;99238.22;4406490;32;34124;-87
2022/06/27 03:43:06;;;;;;;;;;;;;;;27.46;40.51;99234.78;4405240;32;35571;-88
2022/06/27 03:45:34;;;;;;;;;;;;;;;27.13;41.05;99239.22;4405881;32;32316;-86
2022/06/27 03:48:05;;;;;;;;;;;;;;;27.52;40.49;99242.44;4406490;32;33272;-87
2022/06/27 03:50:34;;;;;;;;;;;;;;;27.36;40.38;99237.09;4380561;32;33052;-87
2022/06/27 03:53:03;;;;;;;;;;;;;;;27.93;39.67;99234.81;4408570;32;35048;-88
2022/06/27 03:55:30;;;;;;;;;;;;;;;27.66;39.90;99245.19;4421355;32;34070;-87
2022/06/27 03:57:58;;;;;;;;;;;;;;;27.95;39.37;99238.22;4421955;32;33505;-88
2022/06/27 04:00:27;;;;;;;;;;;;;;;28.41;38.25;99232.91;4409803;32;33431;-87
2022/06/27 04:02:55;;;;;;;;;;;;;;;27.92;39.75;99243.75;4384297;32;32602;-87
2022/06/27 04:05:22;;;;;;;;;;;;;;;27.49;40.37;99250.59;4423575;32;35047;-88
2022/06/27 04:07:49;;;;;;;;;;;;;;;27.74;39.90;99252.75;4423151;32;34297;-88
2022/06/27 04:10:17;;;;;;;;;;;;;;;28.10;39.10;99248.00;4409578;32;34073;-89
2022/06/27 04:12:44;;;;;;;;;;;;;;;28.21;38.94;99255.38;4423055;32;34410;-88
2022/06/27 04:15:19;;;;;;;;;;;;;;;28.37;38.40;99247.34;4423880;32;33723;-90
2022/06/27 04:17:51;;;;;;;;;;;;;;;29.00;37.47;99244.47;4410496;32;34296;-86
2022/06/27 04:20:22;;;;;;;;;;;;;;;28.35;38.50;99252.75;4410294;32;34544;-87
2022/06/27 04:22:51;;;;;;;;;;;;;;;28.12;38.95;99261.25;4409716;32;35225;-83
2022/06/27 04:25:22;;;;;;;;;;;;;;;28.33;38.51;99254.66;4423182;32;33738;-85
2022/06/27 04:27:50;;;;;;;;;;;;;;;28.98;37.67;99257.06;4424437;32;33218;-86
2022/06/27 04:30:18;;;;;;;;;;;;;;;29.84;36.32;99262.31;4422760;32;34024;-86
2022/06/27 04:32:48;;;;;;;;;;;;;;;28.89;37.33;99260.25;4409594;32;34223;-85
2022/06/27 04:35:15;;;;;;;;;;;;;;;29.79;36.22;99259.09;4394217;32;34515;-88
2022/06/27 04:37:43;;;;;;;;;;;;;;;28.23;38.98;99257.97;4407462;32;33440;-86
2022/06/27 04:40:14;;;;;;;;;;;;;;;29.14;37.75;99266.78;4406940;32;33364;-86
2022/06/27 04:42:43;;;;;;;;;;;;;;;30.04;35.65;99264.56;4422073;32;34793;-87
2022/06/27 04:45:12;;;;;;;;;;;;;;;29.50;36.37;99255.59;4423083;32;34790;-86
2022/06/27 04:47:43;;;;;;;;;;;;;;;28.09;39.70;99266.75;4422535;32;33546;-87
2022/06/27 04:50:13;;;;;;;;;;;;;;;28.74;38.13;99259.34;4408618;32;34038;-88
2022/06/27 04:52:41;;;;;;;;;;;;;;;29.44;36.69;99264.00;4409545;32;34817;-85
2022/06/27 04:55:09;;;;;;;;;;;;;;;29.73;36.32;99265.69;4424044;32;35451;-86
2022/06/27 04:57:37;;;;;;;;;;;;;;;29.04;37.54;99267.34;4410447;32;33129;-86
2022/06/27 05:00:07;;;;;;;;;;;;;;;29.72;36.29;99266.66;4409172;32;34901;-85
2022/06/27 05:02:37;;;;;;;;;;;;;;;29.84;36.11;99267.66;4394010;32;34955;-87
2022/06/27 05:05:05;;;;;;;;;;;;;;;30.42;35.21;99268.31;4408192;32;34561;-86
2022/06/27 05:07:32;;;;;;;;;;;;;;;30.71;34.39;99271.69;4422752;32;33463;-88
2022/06/27 05:10:00;;;;;;;;;;;;;;;30.73;34.81;99272.47;4409400;32;34385;-89
2022/06/27 05:12:28;;;;;;;;;;;;;;;31.37;33.40;99275.22;4409661;32;35047;-86
2022/06/27 05:14:55;;;;;;;;;;;;;;;31.40;33.52;99273.12;4424157;32;33526;-84
2022/06/27 05:17:24;;;;;;;;;;;;;;;31.48;33.15;99273.47;4400579;32;33663;-88
2022/06/27 05:19:51;;;;;;;;;;;;;;;29.81;35.72;99276.75;4424254;32;35388;-84
2022/06/27 05:22:18;;;;;;;;;;;;;;;29.44;36.65;99278.22;4422849;32;34504;-84
2022/06/27 05:24:48;;;;;;;;;;;;;;;30.28;36.08;99275.47;4408539;32;34150;-86
2022/06/27 05:27:17;;;;;;;;;;;;;;;30.89;34.83;99266.94;4409216;32;34055;-83
2022/06/27 05:29:45;;;;;;;;;;;;;;;31.04;34.32;99279.25;4422897;32;33650;-88
2022/06/27 05:32:13;;;;;;;;;;;;;;;30.49;35.21;99270.47;4404346;32;33977;-85
2022/06/27 05:34:40;;;;;;;;;;;;;;;29.88;36.58;99269.19;4411254;32;34152;-86
2022/06/27 05:37:07;;;;;;;;;;;;;;;29.40;37.36;99274.03;4422995;32;33952;-83
2022/06/27 05:39:35;;;;;;;;;;;;;;;30.68;36.13;99279.94;4421751;32;34266;-87
2022/06/27 05:42:03;;;;;;;;;;;;;;;28.55;38.77;99280.94;4420556;32;35455;-85
2022/06/27 05:44:31;;;;;;;;;;;;;;;29.14;37.93;99272.13;4412484;32;34303;-88
2022/06/27 05:46:59;;;;;;;;;;;;;;;30.35;36.29;99270.56;4405539;32;34019;-86
2022/06/27 05:49:29;;;;;;;;;;;;;;;31.16;34.61;99280.22;4408026;32;34111;-85
2022/06/27 05:51:57;;;;;;;;;;;;;;;31.50;34.92;99276.03;4421696;32;34382;-85
2022/06/27 05:54:25;;;;;;;;;;;;;;;30.03;36.03;99280.69;4421786;32;34420;-87
2022/06/27 05:56:52;;;;;;;;;;;;;;;30.66;35.23;99274.69;4420294;32;33038;-83
2022/06/27 05:59:20;;;;;;;;;;;;;;;31.60;33.65;99281.59;4423169;32;34746;-85
2022/06/27 06:01:49;;;;;;;;;;;;;;;32.20;32.87;99272.69;4421786;32;34487;-87
2022/06/27 06:04:18;;;;;;;;;;;;;;;32.48;32.14;99281.41;4422773;32;34234;-85
2022/06/27 06:06:48;;;;;;;;;;;;;;;32.56;32.20;99285.19;4397667;32;32814;-86
2022/06/27 06:09:15;;;;;;;;;;;;;;;32.87;31.35;99285.53;4423866;32;35007;-85
2022/06/27 06:11:48;;;;;;;;;;;;;;;32.07;33.17;99293.38;4409540;32;35055;-85
2022/06/27 06:14:19;;;;;;;;;;;;;;;31.16;34.45;99298.97;4397496;32;33660;-86
2022/06/27 06:16:47;;;;;;;;;;;;;;;31.83;33.37;99299.53;4423269;32;33390;-89
2022/06/27 06:19:14;;;;;;;;;;;;;;;30.83;34.83;99286.94;4423537;32;34274;-82
2022/06/27 06:21:42;;;;;;;;;;;;;;;32.39;32.51;99289.12;4408632;32;32808;-85
2022/06/27 06:24:09;;;;;;;;;;;;;;;32.38;32.60;99299.97;4423283;32;33521;-86
2022/06/27 06:26:37;;;;;;;;;;;;;;;32.78;32.02;99294.28;4422812;32;32654;-85
2022/06/27 06:29:14;;;;;;;;;;;;;;;32.41;32.38;99299.78;4408949;32;34141;-85
2022/06/27 06:31:43;;;;;;;;;;;;;;;32.88;31.88;99301.53;4408689;32;33643;-86
2022/06/27 06:34:12;;;;;;;;;;;;;;;33.49;30.85;99306.66;4423013;32;33883;-86
2022/06/27 06:36:41;;;;;;;;;;;;;;;32.76;31.38;99309.66;4422400;32;34061;-87
2022/06/27 06:39:08;;;;;;;;;;;;;;;32.69;31.99;99304.78;4409504;32;34296;-85
2022/06/27 06:41:37;;;;;;;;;;;;;;;32.22;33.00;99314.53;4422297;32;34138;-86
2022/06/27 06:44:05;;;;;;;;;;;;;;;31.64;33.74;99315.25;4421903;32;34309;-87
2022/06/27 06:46:34;;;;;;;;;;;;;;;32.21;32.80;99306.63;4409196;32;33208;-86
2022/06/27 06:49:06;;;;;;;;;;;;;;;31.25;34.60;99314.37;4421951;32;34229;-84
2022/06/27 06:51:35;;;;;;;;;;;;;;;32.29;32.58;99312.25;4396002;32;33792;-88
2022/06/27 06:54:04;;;;;;;;;;;;;;;31.23;34.42;99316.31;4421699;32;34720;-88
2022/06/27 06:56:31;;;;;;;;;;;;;;;31.76;33.54;99305.47;4408029;32;32983;-86
2022/06/27 06:59:03;;;;;;;;;;;;;;;31.46;33.59;99320.09;4421971;32;34022;-87
2022/06/27 07:01:35;;;;;;;;;;;;;;;31.07;34.76;99308.50;4408310;32;33834;-86
2022/06/27 07:04:03;;;;;;;;;;;;;;;29.63;36.85;99317.16;4420770;32;34266;-86
2022/06/27 07:06:31;;;;;;;;;;;;;;;29.56;37.50;99317.50;4408040;32;33043;-86
2022/06/27 07:08:58;;;;;;;;;;;;;;;30.43;36.60;99316.38;4421665;32;33991;-85
2022/06/27 07:11:28;;;;;;;;;;;;;;;30.15;37.32;99316.44;4407581;32;34301;-86
2022/06/27 07:13:56;;;;;;;;;;;;;;;31.26;34.92;99313.44;4421718;32;34175;-85
2022/06/27 07:16:24;;;;;;;;;;;;;;;30.40;36.52;99313.91;4422463;32;34285;-84
2022/06/27 07:18:54;;;;;;;;;;;;;;;31.34;35.07;99311.09;4422992;32;33961;-84
2022/06/27 07:21:21;;;;;;;;;;;;;;;31.59;34.06;99309.34;4391177;32;33692;-82
2022/06/27 07:23:49;;;;;;;;;;;;;;;32.31;33.52;99310.31;4381346;32;34333;-83
2022/06/27 07:26:17;;;;;;;;;;;;;;;33.02;32.80;99296.94;4403523;32;33518;-84
2022/06/27 07:28:44;;;;;;;;;;;;;;;32.80;32.55;99306.59;4407688;32;34962;-84
2022/06/27 07:31:12;;;;;;;;;;;;;;;31.44;34.49;99317.53;4407154;32;33558;-84
2022/06/27 07:33:46;;;;;;;;;;;;;;;31.35;35.07;99318.16;4407494;32;34678;-85
2022/06/27 07:36:17;;;;;;;;;;;;;;;31.19;34.99;99317.50;4412091;32;33339;-93
2022/06/27 07:38:46;;;;;;;;;;;;;;;32.58;33.33;99314.59;4425411;32;34382;-85
2022/06/27 07:41:15;;;;;;;;;;;;;;;33.35;31.82;99314.94;4408032;32;34571;-84
2022/06/27 07:43:43;;;;;;;;;;;;;;;33.84;31.75;99317.25;4421432;32;34937;-83
2022/06/27 07:46:11;;;;;;;;;;;;;;;33.26;31.51;99319.16;4407763;32;33575;-86
2022/06/27 07:48:38;;;;;;;;;;;;;;;33.23;32.20;99321.28;4410203;32;34362;-85
2022/06/27 07:51:06;;;;;;;;;;;;;;;33.71;31.30;99321.03;4423779;32;34124;-85
2022/06/27 07:53:35;;;;;;;;;;;;;;;33.69;29.91;99318.50;4409274;32;34167;-85
2022/06/27 07:56:03;;;;;;;;;;;;;;;34.21;29.75;99332.22;4422547;32;34258;-87
2022/06/27 07:58:35;;;;;;;;;;;;;;;32.43;31.43;99338.09;4415300;32;33788;-96
2022/06/27 08:01:07;;;;;;;;;;;;;;;33.43;30.51;99328.59;4410690;32;33945;-88
2022/06/27 08:03:44;;;;;;;;;;;;;;;33.50;30.67;99326.31;4425929;32;34341;-85
2022/06/27 08:06:20;;;;;;;;;;;;;;;33.64;31.25;99328.75;4424392;32;34218;-88
2022/06/27 08:08:52;;;;;;;;;;;;;;;33.92;29.58;99327.38;4409899;32;34257;-90
2022/06/27 08:11:22;;;;;;;;;;;;;;;33.80;30.33;99326.53;4409917;32;34489;-91
2022/06/27 08:13:50;;;;;;;;;;;;;;;33.66;29.16;99332.19;4410384;32;34885;-90
2022/06/27 08:16:18;;;;;;;;;;;;;;;33.72;29.49;99334.38;4408232;32;34276;-85
2022/06/27 08:18:47;;;;;;;;;;;;;;;32.88;30.83;99339.13;4423802;32;34362;-87
2022/06/27 08:21:17;;;;;;;;;;;;;;;33.06;30.10;99341.38;4395535;32;32733;-95
2022/06/27 08:23:44;;;;;;;;;;;;;;;32.75;31.41;99337.47;4424433;32;34352;-85
2022/06/27 08:26:12;;;;;;;;;;;;;;;33.78;29.79;99341.09;4424529;32;33485;-93
2022/06/27 08:28:40;;;;;;;;;;;;;;;33.71;29.51;99343.41;4422153;32;33919;-88
2022/06/27 08:31:09;;;;;;;;;;;;;;;33.53;29.96;99342.22;4407064;32;35210;-89
2022/06/27 08:33:36;;;;;;;;;;;;;;;32.60;31.18;99360.97;4403197;32;33981;-85
2022/06/27 08:36:04;;;;;;;;;;;;;;;33.74;30.33;99351.22;4392210;32;34169;-85
2022/06/27 08:38:42;;;;;;;;;;;;;;;32.59;31.31;99359.28;4391423;32;34744;-84
2022/06/27 08:41:10;;;;;;;;;;;;;;;33.81;29.80;99344.38;4392765;32;34794;-88
2022/06/27 08:43:38;;;;;;;;;;;;;;;33.01;31.17;99347.13;4391527;32;34261;-88
2022/06/27 08:46:06;;;;;;;;;;;;;;;33.93;29.80;99345.22;4406600;32;34066;-87
2022/06/27 08:48:41;;;;;;;;;;;;;;;33.94;30.88;99343.38;4393888;32;34824;-84
2022/06/27 08:51:09;;;;;;;;;;;;;;;33.70;30.08;99340.84;4393954;32;34238;-87
2022/06/27 08:53:39;;;;;;;;;;;;;;;33.31;31.22;99346.56;4401606;32;33925;-83
2022/06/27 08:56:10;;;;;;;;;;;;;;;33.75;30.99;99339.50;4405871;32;33194;-85
2022/06/27 08:58:38;;;;;;;;;;;;;;;34.56;28.58;99329.34;4394161;32;34499;-86
2022/06/27 09:01:05;;;;;;;;;;;;;;;32.57;31.71;99337.03;4406830;32;35267;-86
2022/06/27 09:03:34;;;;;;;;;;;;;;;33.20;31.15;99335.78;4407089;32;34919;-86
2022/06/27 09:06:03;;;;;;;;;;;;;;;34.03;29.00;99326.53;4405181;32;32944;-85
2022/06/27 09:08:32;;;;;;;;;;;;;;;33.96;29.42;99322.63;4402056;32;33740;-84
2022/06/27 09:11:00;;;;;;;;;;;;;;;33.85;29.34;99318.94;4407339;32;34271;-84
2022/06/27 09:13:28;;;;;;;;;;;;;;;32.78;30.63;99330.06;4406730;32;34386;-86
2022/06/27 09:15:57;;;;;;;;;;;;;;;32.98;30.21;99333.06;4407140;32;33540;-88
2022/06/27 09:18:34;;;;;;;;;;;;;;;33.69;29.50;99318.50;4393546;32;34135;-87
2022/06/27 09:21:06;;;;;;;;;;;;;;;33.06;30.22;99319.88;4393139;32;34234;-88
2022/06/27 09:23:50;;;;;;;;;;;;;;;34.33;28.62;99318.62;4394350;32;35039;-91
2022/06/27 09:26:19;;;;;;;;;;;;;;;33.80;29.00;99313.09;4407416;32;33686;-86
2022/06/27 09:28:51;;;;;;;;;;;;;;;34.20;29.01;99326.00;4407418;32;34871;-90
2022/06/27 09:31:28;;;;;;;;;;;;;;;34.60;28.99;99311.94;4405212;32;34289;-87
2022/06/27 09:34:05;;;;;;;;;;;;;;;34.07;29.34;99322.63;4398198;32;34377;-87
2022/06/27 09:36:32;;;;;;;;;;;;;;;35.43;27.21;99315.59;4391598;32;33536;-88
2022/06/27 09:39:01;;;;;;;;;;;;;;;34.12;28.78;99315.87;4407294;32;35003;-87
2022/06/27 09:41:32;;;;;;;;;;;;;;;34.22;27.94;99320.50;4407120;32;34496;-86
2022/06/27 09:44:01;;;;;;;;;;;;;;;34.76;27.74;99319.56;4393398;32;34227;-89
2022/06/27 09:46:31;;;;;;;;;;;;;;;34.97;26.73;99312.34;4393273;32;34358;-84
2022/06/27 09:48:59;;;;;;;;;;;;;;;34.50;27.02;99313.69;4391933;32;34167;-86
2022/06/27 09:51:27;;;;;;;;;;;;;;;35.16;26.96;99306.25;4383686;32;34191;-85
2022/06/27 09:53:58;;;;;;;;;;;;;;;35.62;24.99;99307.63;4414110;32;34814;-88
2022/06/27 09:56:26;;;;;;;;;;;;;;;35.24;24.63;99306.44;4409097;32;34222;-89
2022/06/27 09:58:55;;;;;;;;;;;;;;;35.64;25.94;99302.06;4408618;32;33677;-86
2022/06/27 10:01:44;;;;;;;;;;;;;;;34.65;26.62;99303.47;4422619;32;34771;-87
2022/06/27 10:04:11;;;;;;;;;;;;;;;34.34;26.83;99309.56;4422860;32;34298;-88
2022/06/27 10:06:40;;;;;;;;;;;;;;;35.11;26.18;99297.69;4423470;32;33499;-87
2022/06/27 10:09:08;;;;;;;;;;;;;;;35.89;26.88;99300.75;4408316;32;34883;-87
2022/06/27 10:11:39;;;;;;;;;;;;;;;36.07;25.69;99301.81;4409359;32;34337;-87
2022/06/27 10:14:10;;;;;;;;;;;;;;;35.04;26.77;99297.41;4410067;32;33804;-87
2022/06/27 10:16:49;;;;;;;;;;;;;;;36.01;25.91;99288.84;4408014;32;34069;-86
2022/06/27 10:19:17;;;;;;;;;;;;;;;36.56;25.67;99281.09;4416446;32;35215;-95
2022/06/27 10:21:47;;;;;;;;;;;;;;;36.99;24.04;99271.66;4410226;32;34417;-91
2022/06/27 10:24:24;;;;;;;;;;;;;;;36.15;25.18;99283.06;4410148;32;34615;-88
2022/06/27 10:26:55;;;;;;;;;;;;;;;34.92;26.36;99284.06;4419091;32;32984;-84
2022/06/27 10:29:47;;;;;;;;;;;;;;;35.88;26.58;99282.81;4407083;32;34166;-89
2022/06/27 10:32:34;;;;;;;;;;;;;;;35.69;26.36;99280.97;4399958;32;34432;-93
2022/06/27 10:35:01;;;;;;;;;;;;;;;36.03;24.86;99276.94;4416278;32;33380;-89
2022/06/27 10:37:29;;;;;;;;;;;;;;;36.11;24.50;99276.25;4422974;32;33789;-85
2022/06/27 10:40:15;;;;;;;;;;;;;;;35.31;25.18;99277.09;4406197;32;33867;-83
2022/06/27 10:42:52;;;;;;;;;;;;;;;36.42;24.84;99265.31;4406656;32;34609;-89
2022/06/27 10:45:19;;;;;;;;;;;;;;;36.95;23.63;99254.91;4407226;32;34831;-80
2022/06/27 10:47:50;;;;;;;;;;;;;;;35.64;24.69;99270.56;4406621;32;33490;-88
2022/06/27 10:50:18;;;;;;;;;;;;;;;36.61;23.87;99262.59;4406560;32;34658;-86
2022/06/27 10:52:46;;;;;;;;;;;;;;;36.83;23.31;99255.19;4386124;32;34475;-85
2022/06/27 10:55:33;;;;;;;;;;;;;;;36.36;22.81;99258.59;4408497;32;33900;-85
2022/06/27 10:58:00;;;;;;;;;;;;;;;37.52;22.21;99246.72;4409154;32;33607;-83
2022/06/27 11:00:37;;;;;;;;;;;;;;;36.83;23.09;99244.38;4408746;32;34553;-84
2022/06/27 11:03:05;;;;;;;;;;;;;;;37.41;22.45;99249.59;4421658;32;35419;-85
2022/06/27 11:05:51;;;;;;;;;;;;;;;37.69;22.25;99248.59;4422312;32;35006;-85
2022/06/27 11:08:19;;;;;;;;;;;;;;;36.42;23.55;99246.41;4421555;32;33342;-85
2022/06/27 11:10:47;;;;;;;;;;;;;;;36.53;23.41;99246.28;4421801;32;34071;-88
2022/06/27 11:13:33;;;;;;;;;;;;;;;36.50;23.14;99250.12;4408466;32;34671;-85
2022/06/27 11:16:02;;;;;;;;;;;;;;;35.94;24.43;99252.59;4422487;32;34445;-89
2022/06/27 11:18:43;;;;;;;;;;;;;;;36.87;23.74;99240.38;4409200;32;33426;-87
2022/06/27 11:21:11;;;;;;;;;;;;;;;37.59;22.35;99233.44;4412638;32;34282;-86
2022/06/27 11:23:51;;;;;;;;;;;;;;;36.40;22.78;99221.38;4394982;32;868699;-87
2022/06/27 11:26:22;;;;;;;;;;;;;;;36.42;23.19;99220.25;4423422;32;34162;-87
2022/06/27 11:34:27;;;;;;;;;;;;;;;36.59;23.38;99221.38;4407576;32;34375;-95
2022/06/27 11:36:55;;;;;;;;;;;;;;;37.07;22.49;99217.72;4393163;32;33823;-88
2022/06/27 11:39:23;;;;;;;;;;;;;;;37.01;22.26;99216.47;4394169;32;33357;-86
2022/06/27 11:41:55;;;;;;;;;;;;;;;36.85;22.07;99218.06;4408582;32;33982;-86
2022/06/27 11:44:23;;;;;;;;;;;;;;;37.50;22.85;99213.56;4421577;32;34440;-86
2022/06/27 11:46:52;;;;;;;;;;;;;;;37.80;22.48;99216.94;4411059;32;34439;-91
2022/06/27 11:49:29;;;;;;;;;;;;;;;38.40;20.74;99214.50;4421490;32;33306;-86
2022/06/27 11:51:57;;;;;;;;;;;;;;;38.17;21.07;99205.97;4421308;32;34271;-87
2022/06/27 11:54:25;;;;;;;;;;;;;;;37.41;21.69;99209.91;4394333;32;35270;-89
2022/06/27 11:56:55;;;;;;;;;;;;;;;36.35;21.81;99212.88;4380531;32;33760;-91
2022/06/27 11:59:22;;;;;;;;;;;;;;;36.58;21.61;99203.47;4403394;32;32767;-87
2022/06/27 12:01:53;;;;;;;;;;;;;;;36.04;22.69;99205.78;4406641;32;34780;-91
2022/06/27 12:04:23;;;;;;;;;;;;;;;36.67;22.35;99202.63;4396354;32;34930;-86
2022/06/27 12:06:58;;;;;;;;;;;;;;;35.81;23.44;99209.72;4391543;32;34866;-85
2022/06/27 12:09:26;;;;;;;;;;;;;;;36.75;23.08;99188.38;4390777;32;32950;-86
2022/06/27 12:11:55;;;;;;;;;;;;;;;36.06;24.07;99198.38;4390593;32;34143;-85
2022/06/27 12:14:23;;;;;;;;;;;;;;;36.70;22.90;99196.06;4391670;32;34501;-89
2022/06/27 12:16:51;;;;;;;;;;;;;;;37.02;22.33;99179.50;4406539;32;35412;-86
2022/06/27 12:19:25;;;;;;;;;;;;;;;37.16;21.90;99186.22;4393967;32;32801;-86
2022/06/27 12:21:53;;;;;;;;;;;;;;;37.44;22.15;99185.28;4397196;32;35338;-89
2022/06/27 12:24:20;;;;;;;;;;;;;;;37.13;21.88;99181.16;4404908;32;34263;-86
2022/06/27 12:26:47;;;;;;;;;;;;;;;36.94;22.53;99187.47;4406654;32;34203;-84
2022/06/27 12:29:15;;;;;;;;;;;;;;;37.61;20.97;99180.88;4406697;32;33460;-88
2022/06/27 12:31:43;;;;;;;;;;;;;;;37.63;20.37;99173.47;4398450;32;34034;-92
2022/06/27 12:34:10;;;;;;;;;;;;;;;36.53;21.49;99179.63;4401184;32;35041;-90
2022/06/27 12:36:38;;;;;;;;;;;;;;;37.48;21.07;99175.84;4396632;32;35588;-91
2022/06/27 12:39:06;;;;;;;;;;;;;;;37.28;21.19;99168.84;4409166;32;33279;-95
2022/06/27 12:41:34;;;;;;;;;;;;;;;37.29;22.11;99178.63;4397578;32;35358;-94
2022/06/27 12:44:03;;;;;;;;;;;;;;;37.21;21.13;99167.72;4392271;32;34817;-88
2022/06/27 12:46:31;;;;;;;;;;;;;;;36.10;22.58;99185.44;4379509;32;33957;-89
2022/06/27 12:49:19;;;;;;;;;;;;;;;37.08;22.32;99178.87;4394477;32;34311;-86
2022/06/27 12:51:47;;;;;;;;;;;;;;;37.77;19.95;99171.22;4398728;32;34361;-86
2022/06/27 12:54:15;;;;;;;;;;;;;;;36.82;21.14;99161.59;4419852;32;34972;-81
2022/06/27 12:56:44;;;;;;;;;;;;;;;35.70;22.08;99169.38;4405030;32;33226;-88
2022/06/27 12:59:12;;;;;;;;;;;;;;;36.39;21.23;99165.69;4396477;32;33588;-88
2022/06/27 13:01:39;;;;;;;;;;;;;;;36.54;22.33;99164.25;4408502;32;33942;-89
2022/06/27 13:04:07;;;;;;;;;;;;;;;35.73;22.79;99161.84;4396351;32;33686;-89